Time;durP1;ratioP1;P1;durP2;ratioP2;P2;SDS_P1;SDS_P2;PMS_P1;PMS_P2;Temp;Humidity;BMP_temperature;BMP_pressure;BME280_temperature;BME280_humidity;BME280_pressure;Samples;Min_cycle;Max_cycle;Signal;HPM_P1;HPM_P2
2022/08/16 00:00:34;;;;;;;20.17;14.53;;;21.30;99.90;;;;;;5074848;28;20474;-53
2022/08/16 00:03:02;;;;;;;17.93;15.93;;;21.20;99.90;;;;;;5074694;28;20466;-52
2022/08/16 00:05:30;;;;;;;15.17;13.57;;;21.30;99.90;;;;;;5075800;28;20458;-52
2022/08/16 00:07:58;;;;;;;17.23;14.33;;;21.30;99.90;;;;;;5074918;28;20553;-47
2022/08/16 00:10:28;;;;;;;17.83;15.13;;;21.30;99.90;;;;;;5075991;28;20442;-55
2022/08/16 00:12:57;;;;;;;18.90;15.60;;;21.30;99.90;;;;;;5077328;28;20509;-50
2022/08/16 00:15:30;;;;;;;16.03;14.37;;;21.40;99.90;;;;;;5077779;28;20454;-49
2022/08/16 00:17:57;;;;;;;17.67;14.13;;;21.40;99.90;;;;;;5076864;28;20470;-51
2022/08/16 00:20:24;;;;;;;16.93;15.13;;;21.30;99.90;;;;;;5076513;28;20442;-52
2022/08/16 00:22:51;;;;;;;21.17;16.80;;;21.30;99.90;;;;;;5076882;28;20474;-50
2022/08/16 00:25:23;;;;;;;18.87;16.90;;;21.30;99.90;;;;;;5078078;28;20450;-51
2022/08/16 00:27:50;;;;;;;20.90;15.07;;;21.30;99.90;;;;;;5078173;28;20470;-49
2022/08/16 00:30:19;;;;;;;18.23;15.73;;;21.30;99.90;;;;;;5078294;28;20449;-49
2022/08/16 00:32:48;;;;;;;22.07;16.67;;;21.20;99.90;;;;;;5078366;28;20466;-52
2022/08/16 00:35:18;;;;;;;16.40;14.27;;;21.20;99.90;;;;;;5077457;28;20434;-50
2022/08/16 00:37:47;;;;;;;17.07;15.27;;;21.20;99.90;;;;;;5077730;28;20462;-49
2022/08/16 00:40:16;;;;;;;17.13;15.03;;;21.20;99.90;;;;;;5077051;28;20456;-51
2022/08/16 00:42:45;;;;;;;19.57;17.47;;;21.20;99.90;;;;;;5078042;28;20480;-52
2022/08/16 00:45:23;;;;;;;18.67;16.03;;;21.10;99.90;;;;;;5077718;28;20457;-56
2022/08/16 00:47:50;;;;;;;17.27;14.47;;;21.20;99.90;;;;;;5079455;28;20509;-56
2022/08/16 00:50:20;;;;;;;17.30;14.50;;;21.10;99.90;;;;;;5082758;28;20454;-54
2022/08/16 00:52:47;;;;;;;17.60;14.67;;;21.10;99.90;;;;;;5082612;28;20477;-54
2022/08/16 00:55:13;;;;;;;17.63;14.50;;;21.10;99.90;;;;;;5080729;28;20468;-51
2022/08/16 00:57:41;;;;;;;15.90;14.20;;;21.00;99.90;;;;;;5080990;28;20547;-52
2022/08/16 01:00:11;;;;;;;17.07;13.90;;;20.90;99.90;;;;;;5081542;28;20461;-51
2022/08/16 01:02:38;;;;;;;16.70;14.90;;;20.90;99.90;;;;;;5081205;28;20517;-53
2022/08/16 01:05:05;;;;;;;15.03;12.70;;;21.00;99.90;;;;;;5080610;28;20454;-53
2022/08/16 01:07:33;;;;;;;15.53;12.83;;;20.90;99.90;;;;;;5081818;28;21032;-52
2022/08/16 01:10:00;;;;;;;19.27;14.60;;;20.90;99.90;;;;;;5079938;28;20541;-52
2022/08/16 01:12:27;;;;;;;19.90;14.90;;;20.90;99.90;;;;;;5078568;28;20480;-51
2022/08/16 01:14:58;;;;;;;16.03;14.40;;;20.90;99.90;;;;;;5078196;28;20446;-52
2022/08/16 01:17:28;;;;;;;18.57;14.43;;;20.90;99.90;;;;;;5078322;28;20540;-51
2022/08/16 01:19:59;;;;;;;17.20;14.43;;;20.80;99.90;;;;;;5078282;28;20647;-54
2022/08/16 01:22:35;;;;;;;16.67;14.33;;;20.80;99.90;;;;;;5077787;28;20486;-50
2022/08/16 01:25:07;;;;;;;26.77;15.10;;;20.70;99.90;;;;;;5078277;28;20426;-51
2022/08/16 01:27:38;;;;;;;16.20;14.60;;;20.70;99.90;;;;;;5079504;28;20466;-59
2022/08/16 01:30:09;;;;;;;17.30;13.30;;;20.80;99.90;;;;;;5081655;28;20521;-52
2022/08/16 01:32:41;;;;;;;20.23;13.93;;;20.80;99.90;;;;;;5078864;28;20484;-53
2022/08/16 01:35:13;;;;;;;16.87;14.97;;;20.70;99.90;;;;;;5077989;28;20771;-52
2022/08/16 01:37:42;;;;;;;21.23;14.27;;;20.70;99.90;;;;;;5078586;28;20469;-52
2022/08/16 01:40:12;;;;;;;18.30;15.00;;;20.70;99.90;;;;;;5078458;28;20884;-54
2022/08/16 01:42:38;;;;;;;16.23;14.53;;;20.70;99.90;;;;;;5078808;28;20526;-52
2022/08/16 01:45:06;;;;;;;17.80;13.90;;;20.70;99.90;;;;;;5081142;28;20537;-52
2022/08/16 01:47:35;;;;;;;18.80;14.77;;;20.70;99.90;;;;;;5079392;28;20503;-54
2022/08/16 01:50:03;;;;;;;19.13;14.60;;;20.70;99.90;;;;;;5077910;28;20437;-54
2022/08/16 01:52:34;;;;;;;17.23;15.40;;;20.70;99.90;;;;;;5077392;28;20470;-53
2022/08/16 01:55:01;;;;;;;16.10;14.40;;;20.70;99.90;;;;;;5077386;28;20436;-53
2022/08/16 01:57:30;;;;;;;17.70;14.90;;;20.70;99.90;;;;;;5077252;28;20506;-52
2022/08/16 01:59:57;;;;;;;16.63;14.67;;;20.60;99.90;;;;;;5076597;28;20540;-53
2022/08/16 02:02:28;;;;;;;17.37;15.63;;;20.60;99.90;;;;;;5080130;28;20585;-51
2022/08/16 02:04:55;;;;;;;20.03;15.00;;;20.70;99.90;;;;;;5080032;28;20470;-54
2022/08/16 02:07:22;;;;;;;20.77;16.33;;;20.70;99.90;;;;;;5077712;28;20466;-53
2022/08/16 02:09:49;;;;;;;15.80;13.63;;;20.70;99.90;;;;;;5077208;28;20907;-53
2022/08/16 02:12:16;;;;;;;17.17;14.87;;;20.60;99.90;;;;;;5077258;28;20460;-51
2022/08/16 02:14:44;;;;;;;26.67;15.63;;;20.60;99.90;;;;;;5077440;28;20430;-52
2022/08/16 02:17:12;;;;;;;20.07;14.67;;;20.60;99.90;;;;;;5076917;28;20907;-53
2022/08/16 02:19:42;;;;;;;21.30;16.83;;;20.60;99.90;;;;;;5077116;28;20431;-48
2022/08/16 02:22:12;;;;;;;16.93;14.77;;;20.60;99.90;;;;;;5077057;28;20572;-49
2022/08/16 02:24:41;;;;;;;21.40;17.83;;;20.50;99.90;;;;;;5077245;28;20445;-49
2022/08/16 02:27:10;;;;;;;20.53;14.67;;;20.50;99.90;;;;;;5077278;28;20510;-51
2022/08/16 02:29:41;;;;;;;23.43;15.73;;;20.50;99.90;;;;;;5076856;28;20434;-53
2022/08/16 02:32:11;;;;;;;16.27;14.63;;;20.50;99.90;;;;;;5077098;28;20431;-51
2022/08/16 02:34:38;;;;;;;19.50;14.40;;;20.50;99.90;;;;;;5077030;28;20552;-55
2022/08/16 02:37:05;;;;;;;18.50;14.93;;;20.50;99.90;;;;;;5076981;28;20485;-53
2022/08/16 02:39:31;;;;;;;17.30;15.40;;;20.40;99.90;;;;;;5076632;28;20464;-52
2022/08/16 02:41:59;;;;;;;18.27;15.53;;;20.40;99.90;;;;;;5076879;28;20482;-54
2022/08/16 02:44:26;;;;;;;18.17;15.40;;;20.40;99.90;;;;;;5076491;28;20457;-55
2022/08/16 02:46:53;;;;;;;17.87;15.43;;;20.40;99.90;;;;;;5077006;28;20461;-54
2022/08/16 02:49:22;;;;;;;18.23;16.13;;;20.40;99.90;;;;;;5077503;28;20446;-53
2022/08/16 02:51:49;;;;;;;16.67;14.80;;;20.40;99.90;;;;;;5079604;28;20446;-53
2022/08/16 02:54:15;;;;;;;20.07;14.93;;;20.40;99.90;;;;;;5079526;28;20442;-54
2022/08/16 02:56:42;;;;;;;20.50;16.80;;;20.40;99.90;;;;;;5077565;28;20470;-53
2022/08/16 02:59:11;;;;;;;19.13;17.07;;;20.40;99.90;;;;;;5076380;28;20569;-55
2022/08/16 03:01:41;;;;;;;19.77;16.47;;;20.30;99.90;;;;;;5076044;28;20502;-55
2022/08/16 03:04:08;;;;;;;20.13;17.23;;;20.30;99.90;;;;;;5076454;28;20442;-53
2022/08/16 03:06:36;;;;;;;20.20;17.57;;;20.30;99.90;;;;;;5076196;28;20478;-51
2022/08/16 03:09:04;;;;;;;22.30;16.70;;;20.30;99.90;;;;;;5076206;28;20482;-50
2022/08/16 03:11:34;;;;;;;20.03;15.43;;;20.30;99.90;;;;;;5075298;28;20446;-52
2022/08/16 03:14:01;;;;;;;19.80;16.63;;;20.30;99.90;;;;;;5076192;28;20473;-52
2022/08/16 03:16:29;;;;;;;17.90;15.83;;;20.30;99.90;;;;;;5076339;28;20450;-49
2022/08/16 03:18:56;;;;;;;17.57;15.10;;;20.30;99.90;;;;;;5077156;28;20611;-55
2022/08/16 03:21:25;;;;;;;20.17;17.50;;;20.30;99.90;;;;;;5079135;28;20478;-53
2022/08/16 03:23:53;;;;;;;20.00;15.50;;;20.30;99.90;;;;;;5075413;28;20791;-53
2022/08/16 03:26:20;;;;;;;21.80;15.60;;;20.30;99.90;;;;;;5075869;28;20455;-53
2022/08/16 03:28:47;;;;;;;20.00;17.50;;;20.40;99.90;;;;;;5075824;28;20474;-51
2022/08/16 03:31:14;;;;;;;19.43;15.20;;;20.40;99.90;;;;;;5075972;28;20759;-53
2022/08/16 03:33:41;;;;;;;21.73;16.43;;;20.40;99.90;;;;;;5075662;28;20482;-48
2022/08/16 03:36:09;;;;;;;18.60;16.17;;;20.30;99.90;;;;;;5075517;28;20549;-51
2022/08/16 03:38:36;;;;;;;21.83;16.17;;;20.30;99.90;;;;;;5075632;28;20473;-53
2022/08/16 03:41:06;;;;;;;21.00;17.73;;;20.30;99.90;;;;;;5075650;28;20448;-52
2022/08/16 03:43:33;;;;;;;23.30;16.90;;;20.30;99.90;;;;;;5076434;28;20499;-56
2022/08/16 03:46:01;;;;;;;24.33;15.87;;;20.30;99.90;;;;;;5076502;28;20481;-52
2022/08/16 03:48:35;;;;;;;20.77;16.70;;;20.30;99.90;;;;;;5076624;28;20467;-52
2022/08/16 03:51:07;;;;;;;19.40;16.37;;;20.30;99.90;;;;;;5077068;28;20440;-54
2022/08/16 03:53:35;;;;;;;20.90;18.20;;;20.40;99.90;;;;;;5076373;28;20474;-53
2022/08/16 03:56:04;;;;;;;21.77;17.33;;;20.30;99.90;;;;;;5075641;28;20446;-51
2022/08/16 03:58:32;;;;;;;21.57;17.40;;;20.30;99.90;;;;;;5076479;28;20470;-52
2022/08/16 04:00:59;;;;;;;20.57;17.57;;;20.30;99.90;;;;;;5078191;28;20438;-56
2022/08/16 04:03:27;;;;;;;22.80;18.20;;;20.30;99.90;;;;;;5075544;28;20490;-54
2022/08/16 04:05:54;;;;;;;22.10;18.67;;;20.30;99.90;;;;;;5075354;28;20479;-53
2022/08/16 04:08:22;;;;;;;20.60;17.30;;;20.40;99.90;;;;;;5075200;28;20474;-55
2022/08/16 04:10:50;;;;;;;21.23;17.07;;;20.40;99.90;;;;;;5074947;28;20462;-50
2022/08/16 04:13:17;;;;;;;21.67;15.73;;;20.40;99.90;;;;;;5075089;28;20548;-55
2022/08/16 04:15:46;;;;;;;20.03;17.67;;;20.40;99.90;;;;;;5076144;28;20546;-52
2022/08/16 04:18:14;;;;;;;23.87;19.00;;;20.40;99.90;;;;;;5076867;28;20659;-55
2022/08/16 04:20:41;;;;;;;19.73;16.63;;;20.40;99.90;;;;;;5075023;28;20533;-51
2022/08/16 04:23:08;;;;;;;21.70;17.20;;;20.40;99.90;;;;;;5074308;28;20981;-51
2022/08/16 04:25:36;;;;;;;26.23;18.17;;;20.40;99.90;;;;;;5075183;28;20795;-52
2022/08/16 04:28:04;;;;;;;23.27;17.00;;;20.40;99.90;;;;;;5077067;28;20974;-59
2022/08/16 04:30:31;;;;;;;22.80;19.07;;;20.40;99.90;;;;;;5078575;28;20442;-58
2022/08/16 04:33:00;;;;;;;19.43;15.63;;;20.40;99.90;;;;;;5078078;28;20442;-55
2022/08/16 04:35:27;;;;;;;20.00;16.87;;;20.40;99.90;;;;;;5075830;28;20745;-53
2022/08/16 04:37:54;;;;;;;24.80;18.17;;;20.40;99.90;;;;;;5074784;28;20510;-52
2022/08/16 04:40:22;;;;;;;21.73;16.23;;;20.40;99.90;;;;;;5074856;28;20529;-50
2022/08/16 04:42:52;;;;;;;19.60;17.00;;;20.40;99.90;;;;;;5074432;28;20478;-52
2022/08/16 04:45:20;;;;;;;24.23;18.00;;;20.40;99.90;;;;;;5074381;28;20457;-52
2022/08/16 04:47:47;;;;;;;20.77;18.50;;;20.50;99.90;;;;;;5074799;28;20458;-54
2022/08/16 04:50:18;;;;;;;22.40;17.23;;;20.50;99.90;;;;;;5074796;28;20454;-54
2022/08/16 04:52:45;;;;;;;23.00;17.70;;;20.50;99.90;;;;;;5074471;28;20449;-53
2022/08/16 04:55:14;;;;;;;24.53;18.50;;;20.60;99.90;;;;;;5074946;28;20525;-52
2022/08/16 04:57:41;;;;;;;21.37;18.43;;;20.60;99.90;;;;;;5075408;28;20450;-59
2022/08/16 05:00:12;;;;;;;22.93;19.00;;;20.60;99.90;;;;;;5077172;28;20461;-51
2022/08/16 05:02:39;;;;;;;30.53;17.53;;;20.70;99.90;;;;;;5074284;28;20466;-54
2022/08/16 05:05:07;;;;;;;22.27;19.03;;;20.70;99.90;;;;;;5074209;28;20783;-53
2022/08/16 05:07:35;;;;;;;21.93;17.97;;;20.80;99.90;;;;;;5075390;28;20433;-53
2022/08/16 05:10:03;;;;;;;22.13;17.77;;;20.70;99.90;;;;;;5077520;28;20947;-54
2022/08/16 05:12:30;;;;;;;24.40;18.23;;;20.80;99.90;;;;;;5074764;28;20446;-54
2022/08/16 05:14:59;;;;;;;26.20;18.43;;;20.80;99.90;;;;;;5073994;28;20480;-52
2022/08/16 05:17:26;;;;;;;19.73;17.60;;;20.90;99.90;;;;;;5074344;28;20443;-51
2022/08/16 05:19:53;;;;;;;24.20;18.90;;;20.90;99.90;;;;;;5074397;28;20470;-52
2022/08/16 05:22:20;;;;;;;20.70;17.63;;;20.90;99.90;;;;;;5074215;28;20478;-53
2022/08/16 05:24:49;;;;;;;21.33;17.70;;;20.90;99.90;;;;;;5074085;28;20466;-52
2022/08/16 05:27:16;;;;;;;21.57;17.17;;;20.90;99.90;;;;;;5074330;28;20802;-50
2022/08/16 05:29:43;;;;;;;21.50;17.57;;;20.90;99.90;;;;;;5074821;28;20471;-55
2022/08/16 05:32:10;;;;;;;23.30;20.47;;;20.90;99.90;;;;;;5077539;28;20529;-53
2022/08/16 05:34:37;;;;;;;23.20;18.73;;;21.00;99.90;;;;;;5078733;28;20470;-52
2022/08/16 05:37:04;;;;;;;22.20;17.83;;;21.00;99.90;;;;;;5080185;28;20563;-53
2022/08/16 05:39:31;;;;;;;27.40;19.70;;;21.10;99.90;;;;;;5078946;28;20474;-56
2022/08/16 05:42:00;;;;;;;26.83;19.57;;;21.10;99.90;;;;;;5080178;28;20783;-53
2022/08/16 05:44:27;;;;;;;22.57;19.17;;;21.20;99.90;;;;;;5077788;28;20509;-54
2022/08/16 05:46:57;;;;;;;22.10;18.00;;;21.20;99.90;;;;;;5077817;28;20739;-54
2022/08/16 05:49:28;;;;;;;19.30;17.20;;;21.30;99.90;;;;;;5077945;28;20492;-53
2022/08/16 05:51:55;;;;;;;21.20;17.33;;;21.30;99.90;;;;;;5077940;28;20461;-53
2022/08/16 05:54:23;;;;;;;25.03;19.47;;;21.40;99.90;;;;;;5077523;28;20498;-54
2022/08/16 05:56:49;;;;;;;19.80;17.43;;;21.40;99.90;;;;;;5078006;28;20438;-51
2022/08/16 05:59:18;;;;;;;25.63;17.90;;;21.50;99.90;;;;;;5077643;28;20532;-52
2022/08/16 06:01:49;;;;;;;21.03;16.20;;;21.50;99.90;;;;;;5077508;28;20452;-50
2022/08/16 06:04:17;;;;;;;20.93;17.13;;;21.50;99.90;;;;;;5077538;28;20482;-58
2022/08/16 06:06:45;;;;;;;23.87;18.97;;;21.60;99.90;;;;;;5079951;28;20435;-55
2022/08/16 06:09:13;;;;;;;23.60;18.10;;;21.60;99.90;;;;;;5079357;28;20821;-53
2022/08/16 06:11:41;;;;;;;22.83;17.67;;;21.60;99.90;;;;;;5077538;28;20470;-52
2022/08/16 06:14:07;;;;;;;25.47;17.97;;;21.60;99.90;;;;;;5077051;28;20480;-49
2022/08/16 06:16:36;;;;;;;21.20;17.83;;;21.60;99.90;;;;;;5077423;28;20612;-54
2022/08/16 06:19:03;;;;;;;18.57;16.50;;;21.70;99.90;;;;;;5077327;28;20468;-52
2022/08/16 06:21:30;;;;;;;23.07;17.33;;;21.80;99.90;;;;;;5077104;28;20484;-52
2022/08/16 06:23:57;;;;;;;24.87;18.17;;;21.80;99.90;;;;;;5076817;28;20489;-53
2022/08/16 06:26:24;;;;;;;21.10;18.40;;;21.90;99.90;;;;;;5077241;28;20442;-57
2022/08/16 06:28:53;;;;;;;20.77;18.50;;;21.90;99.90;;;;;;5077236;28;20443;-52
2022/08/16 06:31:20;;;;;;;18.10;16.20;;;21.90;99.90;;;;;;5077980;28;20546;-57
2022/08/16 06:33:48;;;;;;;20.07;16.60;;;21.90;99.90;;;;;;5079713;28;20447;-60
2022/08/16 06:36:15;;;;;;;23.10;18.40;;;22.00;99.90;;;;;;5077471;28;20754;-57
2022/08/16 06:38:42;;;;;;;18.57;16.00;;;22.00;99.90;;;;;;5076919;28;20446;-54
2022/08/16 06:41:10;;;;;;;21.00;16.13;;;22.10;99.90;;;;;;5076921;28;20476;-50
2022/08/16 06:43:37;;;;;;;20.13;16.23;;;22.10;99.90;;;;;;5076938;28;20484;-53
2022/08/16 06:46:09;;;;;;;22.67;19.00;;;22.20;99.90;;;;;;5076160;28;20607;-54
2022/08/16 06:48:37;;;;;;;20.13;17.80;;;22.30;99.90;;;;;;5077892;28;20443;-54
2022/08/16 06:51:07;;;;;;;21.60;18.47;;;22.30;99.90;;;;;;5077811;28;20470;-53
2022/08/16 06:53:35;;;;;;;26.40;18.33;;;22.30;99.90;;;;;;5078915;28;20485;-58
2022/08/16 06:56:05;;;;;;;19.50;16.00;;;22.40;99.90;;;;;;5079571;28;20531;-54
2022/08/16 06:58:33;;;;;;;20.77;17.70;;;22.50;99.90;;;;;;5079583;28;20499;-54
2022/08/16 07:01:00;;;;;;;20.17;15.37;;;22.60;99.90;;;;;;5077420;28;20485;-53
2022/08/16 07:03:27;;;;;;;20.67;17.30;;;22.60;99.90;;;;;;5077441;28;20517;-54
2022/08/16 07:05:55;;;;;;;21.07;18.87;;;22.70;99.90;;;;;;5076326;28;20474;-54
2022/08/16 07:08:23;;;;;;;21.20;18.70;;;22.80;99.90;;;;;;5076484;28;20558;-53
2022/08/16 07:10:51;;;;;;;19.97;16.77;;;22.90;99.90;;;;;;5076329;28;20798;-56
2022/08/16 07:13:18;;;;;;;19.97;16.33;;;22.90;99.90;;;;;;5075993;28;20450;-55
2022/08/16 07:15:45;;;;;;;16.37;14.60;;;23.00;99.90;;;;;;5076082;28;20471;-54
2022/08/16 07:18:14;;;;;;;25.70;15.90;;;23.00;99.90;;;;;;5076423;28;20496;-55
2022/08/16 07:20:43;;;;;;;18.80;16.30;;;23.10;99.90;;;;;;5076250;28;20480;-54
2022/08/16 07:23:10;;;;;;;18.00;15.73;;;23.30;99.90;;;;;;5076099;28;20504;-54
2022/08/16 07:25:38;;;;;;;18.60;15.50;;;23.30;99.90;;;;;;5076000;28;20517;-54
2022/08/16 07:28:05;;;;;;;23.00;15.10;;;23.50;99.90;;;;;;5075957;28;20435;-55
2022/08/16 07:30:33;;;;;;;23.47;16.53;;;23.50;99.90;;;;;;5076028;28;20790;-54
2022/08/16 07:33:01;;;;;;;16.10;14.33;;;23.60;99.90;;;;;;5076174;28;20449;-55
2022/08/16 07:35:28;;;;;;;18.80;14.50;;;23.70;99.90;;;;;;5075835;28;20474;-55
2022/08/16 07:37:54;;;;;;;19.67;14.30;;;23.70;99.90;;;;;;5075744;28;20438;-54
2022/08/16 07:40:24;;;;;;;19.43;16.33;;;23.80;99.90;;;;;;5075792;28;20446;-55
2022/08/16 07:42:53;;;;;;;20.40;16.27;;;23.90;99.90;;;;;;5075455;28;20514;-54
2022/08/16 07:45:20;;;;;;;19.53;15.70;;;23.90;99.90;;;;;;5075667;28;20556;-55
2022/08/16 07:47:47;;;;;;;17.47;15.40;;;24.00;99.90;;;;;;5075864;28;20470;-54
2022/08/16 07:50:15;;;;;;;18.20;16.43;;;24.20;99.90;;;;;;5075763;28;20729;-56
2022/08/16 07:52:42;;;;;;;18.20;14.73;;;24.30;99.90;;;;;;5076876;28;20431;-55
2022/08/16 07:55:13;;;;;;;15.77;14.17;;;24.50;99.90;;;;;;5076616;28;20497;-57
2022/08/16 07:57:40;;;;;;;17.10;13.37;;;25.10;99.90;;;;;;5075624;28;20521;-54
2022/08/16 08:00:10;;;;;;;14.67;12.93;;;26.50;99.90;;;;;;5076175;28;20442;-53
2022/08/16 08:02:37;;;;;;;14.23;12.73;;;28.20;99.90;;;;;;5075663;28;20451;-54
2022/08/16 08:05:05;;;;;;;13.07;11.77;;;29.90;99.90;;;;;;5075528;28;20450;-53
2022/08/16 08:07:32;;;;;;;14.10;12.57;;;31.50;99.90;;;;;;5075365;28;20443;-53
2022/08/16 08:09:59;;;;;;;15.57;13.83;;;33.00;99.90;;;;;;5075301;28;20458;-55
2022/08/16 08:12:26;;;;;;;14.97;13.57;;;34.50;99.90;;;;;;5075290;28;20458;-55
2022/08/16 08:14:52;;;;;;;15.97;14.10;;;35.50;95.40;;;;;;5075181;28;20522;-54
2022/08/16 08:17:21;;;;;;;15.13;13.80;;;36.10;90.60;;;;;;5075326;28;20611;-55
2022/08/16 08:19:48;;;;;;;16.63;14.93;;;37.00;84.70;;;;;;5075554;28;20442;-53
2022/08/16 08:22:15;;;;;;;18.90;13.40;;;37.50;77.60;;;;;;5075030;28;20541;-54
2022/08/16 08:24:42;;;;;;;15.23;13.90;;;37.70;74.30;;;;;;5075208;28;20490;-53
2022/08/16 08:27:10;;;;;;;14.90;13.37;;;37.70;72.50;;;;;;5075095;28;20456;-57
2022/08/16 08:29:37;;;;;;;14.97;13.57;;;37.70;71.30;;;;;;5075341;28;20462;-52
2022/08/16 08:32:06;;;;;;;15.77;14.40;;;38.20;68.60;;;;;;5075523;28;20453;-55
2022/08/16 08:34:34;;;;;;;13.80;12.60;;;38.30;66.50;;;;;;5075695;28;20537;-58
2022/08/16 08:37:01;;;;;;;15.30;13.80;;;38.40;66.00;;;;;;5075677;28;20466;-55
2022/08/16 08:39:28;;;;;;;13.67;12.43;;;38.60;65.40;;;;;;5075400;28;20522;-52
2022/08/16 08:41:55;;;;;;;16.40;14.63;;;38.40;65.40;;;;;;5074726;28;20531;-56
2022/08/16 08:44:22;;;;;;;14.43;13.03;;;38.10;66.20;;;;;;5074593;28;20585;-55
2022/08/16 08:46:49;;;;;;;14.97;13.37;;;38.00;66.10;;;;;;5074807;28;20566;-55
2022/08/16 08:49:16;;;;;;;14.93;13.30;;;37.90;65.40;;;;;;5074909;28;20464;-56
2022/08/16 08:51:44;;;;;;;14.97;13.53;;;37.70;67.60;;;;;;5074649;28;20481;-55
2022/08/16 08:54:13;;;;;;;13.53;12.13;;;37.80;65.70;;;;;;5074359;28;20447;-55
2022/08/16 08:56:41;;;;;;;13.50;12.20;;;37.70;65.10;;;;;;5074810;28;20474;-55
2022/08/16 08:59:08;;;;;;;13.67;12.30;;;37.60;66.40;;;;;;5074576;28;20891;-58
2022/08/16 09:01:37;;;;;;;11.90;10.90;;;37.60;65.10;;;;;;5075190;28;20553;-54
2022/08/16 09:04:05;;;;;;;11.43;10.43;;;37.60;65.40;;;;;;5075136;28;20486;-54
2022/08/16 09:06:33;;;;;;;11.83;10.83;;;37.60;63.60;;;;;;5074741;28;20470;-55
2022/08/16 09:09:02;;;;;;;13.90;12.43;;;37.40;63.90;;;;;;5075905;28;20481;-54
2022/08/16 09:11:29;;;;;;;11.43;10.33;;;37.40;64.30;;;;;;5078466;28;21082;-52
2022/08/16 09:13:55;;;;;;;10.70;9.67;;;37.20;62.90;;;;;;5078250;28;20438;-56
2022/08/16 09:16:22;;;;;;;11.57;10.37;;;37.30;63.20;;;;;;5078094;28;20462;-54
2022/08/16 09:18:49;;;;;;;11.77;10.27;;;37.30;63.70;;;;;;5078589;28;20439;-54
2022/08/16 09:21:16;;;;;;;12.00;10.80;;;37.30;60.00;;;;;;5078262;28;20569;-53
2022/08/16 09:23:44;;;;;;;12.00;10.70;;;37.20;62.30;;;;;;5078389;28;20488;-53
2022/08/16 09:26:16;;;;;;;13.17;11.87;;;37.30;62.50;;;;;;5078135;28;20907;-54
2022/08/16 09:28:44;;;;;;;13.30;12.03;;;37.40;63.10;;;;;;5078094;28;20426;-54
2022/08/16 09:31:12;;;;;;;13.17;11.80;;;37.80;62.10;;;;;;5078125;28;20430;-52
2022/08/16 09:33:39;;;;;;;13.27;12.03;;;38.20;61.80;;;;;;5078150;28;20426;-55
2022/08/16 09:36:07;;;;;;;13.27;12.07;;;38.20;61.90;;;;;;5077970;28;20938;-54
2022/08/16 09:38:35;;;;;;;14.50;11.20;;;38.00;61.10;;;;;;5077415;28;20840;-55
2022/08/16 09:41:05;;;;;;;12.50;11.40;;;37.70;63.20;;;;;;5077696;28;20516;-55
2022/08/16 09:43:35;;;;;;;12.30;11.10;;;37.90;60.90;;;;;;5077744;28;20472;-58
2022/08/16 09:46:03;;;;;;;12.13;11.07;;;38.30;59.40;;;;;;5077650;28;20557;-55
2022/08/16 09:48:31;;;;;;;15.37;12.33;;;38.20;59.70;;;;;;5077684;28;20449;-52
2022/08/16 09:50:58;;;;;;;14.83;11.93;;;38.00;61.40;;;;;;5077516;28;20446;-55
2022/08/16 09:53:28;;;;;;;12.80;10.87;;;37.90;61.00;;;;;;5077520;28;20548;-53
2022/08/16 09:55:56;;;;;;;11.93;10.70;;;37.80;59.70;;;;;;5077610;28;20998;-54
2022/08/16 09:58:26;;;;;;;12.10;11.00;;;37.70;60.70;;;;;;5077738;28;20529;-54
2022/08/16 10:00:54;;;;;;;11.00;9.63;;;37.50;58.90;;;;;;5077495;28;20442;-54
2022/08/16 10:03:22;;;;;;;12.83;11.60;;;37.20;59.90;;;;;;5077271;28;20466;-54
2022/08/16 10:05:50;;;;;;;11.33;10.30;;;37.10;60.30;;;;;;5077590;28;20500;-55
2022/08/16 10:08:17;;;;;;;10.83;9.23;;;37.30;61.00;;;;;;5077796;28;20453;-53
2022/08/16 10:13:10;;;;;;;11.70;10.70;;;37.40;62.20;;;;;;5077395;28;20537;-55
2022/08/16 10:13:33;;;;;;;13.97;12.67;;;37.50;60.70;;;;;;5076960;28;20473;-55
2022/08/16 10:16:02;;;;;;;12.70;11.40;;;37.50;61.20;;;;;;5077555;28;20427;-55
2022/08/16 10:18:31;;;;;;;12.60;11.33;;;37.60;60.50;;;;;;5077380;28;20921;-54
2022/08/16 10:20:58;;;;;;;14.30;11.47;;;37.30;61.30;;;;;;5076161;28;20466;-61
2022/08/16 10:23:25;;;;;;;15.77;14.27;;;36.60;62.60;;;;;;5077464;28;20507;-59
2022/08/16 10:25:52;;;;;;;10.80;9.67;;;36.50;62.30;;;;;;5077615;28;20450;-53
2022/08/16 10:28:20;;;;;;;10.63;9.63;;;36.80;60.10;;;;;;5077209;28;20461;-55
2022/08/16 10:30:47;;;;;;;11.00;9.90;;;36.70;60.80;;;;;;5077268;28;20442;-55
2022/08/16 10:33:15;;;;;;;10.33;9.33;;;35.80;60.30;;;;;;5077553;28;20442;-58
2022/08/16 10:35:44;;;;;;;11.30;9.60;;;35.20;62.10;;;;;;5077613;28;20442;-52
2022/08/16 10:38:12;;;;;;;8.13;7.40;;;34.70;62.30;;;;;;5077014;28;20561;-54
2022/08/16 10:40:39;;;;;;;9.70;8.70;;;34.00;61.40;;;;;;5076720;28;20451;-56
2022/08/16 10:43:06;;;;;;;9.00;8.20;;;33.70;65.60;;;;;;5076841;28;20564;-53
2022/08/16 10:45:34;;;;;;;8.80;8.00;;;33.70;65.70;;;;;;5076395;28;20573;-53
2022/08/16 10:48:01;;;;;;;10.40;8.80;;;34.00;65.70;;;;;;5076653;28;20489;-50
2022/08/16 10:50:31;;;;;;;9.03;8.13;;;34.10;64.20;;;;;;5076661;28;20505;-53
2022/08/16 10:52:58;;;;;;;8.60;7.80;;;33.90;67.50;;;;;;5076840;28;20474;-53
2022/08/16 10:55:25;;;;;;;9.17;8.33;;;33.80;66.60;;;;;;5076594;28;20757;-53
2022/08/16 10:57:54;;;;;;;9.93;8.93;;;33.80;69.50;;;;;;5076610;28;20474;-53
2022/08/16 11:00:21;;;;;;;9.97;9.07;;;34.00;69.70;;;;;;5076666;28;20457;-52
2022/08/16 11:02:49;;;;;;;8.93;8.10;;;33.90;67.30;;;;;;5076518;28;20562;-54
2022/08/16 11:05:17;;;;;;;9.80;8.80;;;33.70;66.70;;;;;;5076052;28;20477;-54
2022/08/16 11:07:49;;;;;;;10.47;9.17;;;33.50;66.40;;;;;;5076815;28;20558;-57
2022/08/16 11:10:19;;;;;;;11.37;10.20;;;33.40;66.70;;;;;;5077043;28;20526;-52
2022/08/16 11:12:46;;;;;;;9.83;8.97;;;32.90;67.10;;;;;;5076838;28;20480;-55
2022/08/16 11:15:13;;;;;;;10.47;9.57;;;32.40;68.50;;;;;;5076255;28;20435;-54
2022/08/16 11:17:40;;;;;;;12.70;9.10;;;32.30;70.20;;;;;;5076107;28;20462;-53
2022/08/16 11:20:12;;;;;;;11.13;10.10;;;32.00;71.60;;;;;;5075988;28;20950;-53
2022/08/16 11:22:41;;;;;;;11.23;8.97;;;32.20;74.90;;;;;;5076183;28;20492;-54
2022/08/16 11:25:11;;;;;;;8.70;7.90;;;32.40;71.70;;;;;;5075930;28;20474;-52
2022/08/16 11:27:38;;;;;;;10.00;8.93;;;32.60;70.50;;;;;;5075732;28;20485;-56
2022/08/16 11:30:08;;;;;;;10.03;9.00;;;32.80;69.50;;;;;;5075847;28;20446;-54
2022/08/16 11:32:35;;;;;;;10.50;9.50;;;32.70;67.80;;;;;;5075386;28;20470;-55
2022/08/16 11:35:04;;;;;;;9.80;8.90;;;32.40;68.30;;;;;;5075616;28;20635;-54
2022/08/16 11:37:33;;;;;;;9.97;8.97;;;32.00;69.50;;;;;;5075834;28;20881;-55
2022/08/16 11:40:00;;;;;;;9.73;8.80;;;31.80;71.30;;;;;;5076279;28;20561;-54
2022/08/16 11:42:28;;;;;;;11.00;8.90;;;31.70;72.80;;;;;;5076391;28;20502;-55
2022/08/16 11:44:55;;;;;;;8.70;7.90;;;31.90;73.60;;;;;;5075592;28;20486;-55
2022/08/16 11:47:22;;;;;;;9.20;8.40;;;32.00;70.90;;;;;;5075887;28;20466;-53
2022/08/16 11:49:50;;;;;;;8.20;7.40;;;32.20;69.30;;;;;;5075634;28;20450;-56
2022/08/16 11:52:17;;;;;;;9.43;8.53;;;32.30;71.10;;;;;;5075863;28;20450;-57
2022/08/16 11:54:45;;;;;;;9.47;8.57;;;32.20;69.60;;;;;;5075627;28;20508;-55
2022/08/16 11:57:12;;;;;;;8.70;7.17;;;32.20;70.90;;;;;;5075293;28;20939;-53
2022/08/16 11:59:40;;;;;;;10.70;8.10;;;32.30;68.80;;;;;;5075276;28;20426;-55
2022/08/16 12:02:08;;;;;;;7.50;6.90;;;32.30;70.70;;;;;;5075315;28;20458;-54
2022/08/16 12:04:36;;;;;;;8.20;7.43;;;32.20;68.10;;;;;;5075182;28;20482;-55
2022/08/16 12:07:06;;;;;;;8.53;7.83;;;32.10;68.20;;;;;;5075160;28;20459;-54
2022/08/16 12:09:34;;;;;;;8.87;8.00;;;31.90;67.90;;;;;;5074815;28;20935;-54
2022/08/16 12:12:01;;;;;;;8.70;7.43;;;31.90;69.40;;;;;;5075017;28;20499;-52
2022/08/16 12:14:28;;;;;;;10.23;7.40;;;31.70;69.90;;;;;;5074834;28;20445;-54
2022/08/16 12:16:58;;;;;;;9.10;7.97;;;31.80;71.10;;;;;;5075132;28;20515;-52
2022/08/16 12:19:25;;;;;;;8.30;7.60;;;31.80;70.90;;;;;;5075021;28;20504;-53
2022/08/16 12:21:52;;;;;;;8.87;7.90;;;31.80;69.60;;;;;;5074660;28;20441;-56
2022/08/16 12:24:19;;;;;;;8.27;7.47;;;31.90;70.50;;;;;;5074512;28;20509;-52
2022/08/16 12:26:47;;;;;;;9.43;8.50;;;32.00;70.00;;;;;;5075404;28;20442;-50
2022/08/16 12:29:14;;;;;;;9.30;8.40;;;32.00;69.00;;;;;;5075185;28;20529;-52
2022/08/16 12:31:41;;;;;;;9.97;9.07;;;31.90;68.80;;;;;;5074626;28;20774;-54
2022/08/16 12:34:09;;;;;;;10.67;8.30;;;31.70;69.40;;;;;;5074528;28;20446;-54